sensor_id;sensor_type;location;lat;lon;timestamp;pressure;altitude;pressure_sealevel;temperature;humidity
9525;BME280;15940;48.734;9.112;2022-08-23T00:01:42;96501.00;;;17.73;58.04
9525;BME280;15940;48.734;9.112;2022-08-23T00:04:13;96507.00;;;17.71;57.27
9525;BME280;15940;48.734;9.112;2022-08-23T00:06:41;96503.66;;;17.65;56.89
9525;BME280;15940;48.734;9.112;2022-08-23T00:09:09;96501.44;;;17.63;57.48
9525;BME280;15940;48.734;9.112;2022-08-23T00:11:41;96503.66;;;17.65;57.97
9525;BME280;15940;48.734;9.112;2022-08-23T00:14:14;96505.66;;;17.64;57.81
9525;BME280;15940;48.734;9.112;2022-08-23T00:16:41;96495.31;;;17.70;58.67
9525;BME280;15940;48.734;9.112;2022-08-23T00:19:12;96496.44;;;17.75;57.94
9525;BME280;15940;48.734;9.112;2022-08-23T00:21:40;96491.34;;;17.79;58.84
9525;BME280;15940;48.734;9.112;2022-08-23T00:24:09;96494.44;;;17.76;58.06
9525;BME280;15940;48.734;9.112;2022-08-23T00:26:51;96497.81;;;17.68;58.07
9525;BME280;15940;48.734;9.112;2022-08-23T00:29:19;96488.47;;;17.64;57.77
9525;BME280;15940;48.734;9.112;2022-08-23T00:31:46;96488.88;;;17.68;59.00
9525;BME280;15940;48.734;9.112;2022-08-23T00:34:13;96478.06;;;17.62;58.11
9525;BME280;15940;48.734;9.112;2022-08-23T00:36:41;96484.28;;;17.63;58.04
9525;BME280;15940;48.734;9.112;2022-08-23T00:39:09;96480.47;;;17.66;57.89
9525;BME280;15940;48.734;9.112;2022-08-23T00:41:37;96473.81;;;17.75;57.95
9525;BME280;15940;48.734;9.112;2022-08-23T00:44:13;96475.81;;;17.74;57.47
9525;BME280;15940;48.734;9.112;2022-08-23T00:46:58;96477.81;;;17.74;57.67
9525;BME280;15940;48.734;9.112;2022-08-23T00:49:51;96468.44;;;17.69;56.53
9525;BME280;15940;48.734;9.112;2022-08-23T00:52:26;96479.38;;;17.69;57.15
9525;BME280;15940;48.734;9.112;2022-08-23T00:54:54;96488.13;;;17.67;57.29
9525;BME280;15940;48.734;9.112;2022-08-23T00:57:22;96484.47;;;17.65;58.54
9525;BME280;15940;48.734;9.112;2022-08-23T00:59:51;96486.06;;;17.60;57.70
9525;BME280;15940;48.734;9.112;2022-08-23T01:02:18;96483.59;;;17.49;58.24
9525;BME280;15940;48.734;9.112;2022-08-23T01:04:53;96479.88;;;17.39;59.23
9525;BME280;15940;48.734;9.112;2022-08-23T01:07:30;96478.75;;;17.34;58.83
9525;BME280;15940;48.734;9.112;2022-08-23T01:10:07;96480.53;;;17.32;59.41
9525;BME280;15940;48.734;9.112;2022-08-23T01:12:40;96491.06;;;17.28;59.04
9525;BME280;15940;48.734;9.112;2022-08-23T01:15:23;96488.25;;;17.20;59.33
9525;BME280;15940;48.734;9.112;2022-08-23T01:17:55;96491.53;;;17.19;59.11
9525;BME280;15940;48.734;9.112;2022-08-23T01:20:31;96491.66;;;17.13;58.92
9525;BME280;15940;48.734;9.112;2022-08-23T01:23:05;96492.81;;;17.18;59.66
9525;BME280;15940;48.734;9.112;2022-08-23T01:25:36;96487.31;;;17.18;59.55
9525;BME280;15940;48.734;9.112;2022-08-23T01:28:04;96482.06;;;17.20;59.44
9525;BME280;15940;48.734;9.112;2022-08-23T01:30:33;96482.59;;;17.18;59.07
9525;BME280;15940;48.734;9.112;2022-08-23T01:33:05;96483.53;;;17.21;59.72
9525;BME280;15940;48.734;9.112;2022-08-23T01:35:37;96479.94;;;17.26;59.36
9525;BME280;15940;48.734;9.112;2022-08-23T01:38:07;96483.25;;;17.32;58.48
9525;BME280;15940;48.734;9.112;2022-08-23T01:40:37;96477.47;;;17.35;58.80
9525;BME280;15940;48.734;9.112;2022-08-23T01:43:05;96474.19;;;17.37;58.17
9525;BME280;15940;48.734;9.112;2022-08-23T01:45:33;96485.94;;;17.45;58.33
9525;BME280;15940;48.734;9.112;2022-08-23T01:48:01;96483.59;;;17.49;57.98
9525;BME280;15940;48.734;9.112;2022-08-23T01:50:28;96491.16;;;17.56;57.34
9525;BME280;15940;48.734;9.112;2022-08-23T01:52:56;96476.38;;;17.59;58.04
9525;BME280;15940;48.734;9.112;2022-08-23T01:55:23;96482.41;;;17.58;57.52
9525;BME280;15940;48.734;9.112;2022-08-23T01:57:55;96489.88;;;17.57;57.49
9525;BME280;15940;48.734;9.112;2022-08-23T02:00:26;96490.97;;;17.54;57.99
9525;BME280;15940;48.734;9.112;2022-08-23T02:02:54;96491.28;;;17.51;57.77
9525;BME280;15940;48.734;9.112;2022-08-23T02:05:21;96487.00;;;17.42;58.01
9525;BME280;15940;48.734;9.112;2022-08-23T02:07:48;96492.44;;;17.34;58.49
9525;BME280;15940;48.734;9.112;2022-08-23T02:10:16;96491.63;;;17.26;58.06
9525;BME280;15940;48.734;9.112;2022-08-23T02:12:44;96499.00;;;17.18;57.80
9525;BME280;15940;48.734;9.112;2022-08-23T02:15:14;96496.59;;;17.14;58.02
9525;BME280;15940;48.734;9.112;2022-08-23T02:17:42;96495.53;;;17.18;58.68
9525;BME280;15940;48.734;9.112;2022-08-23T02:20:11;96503.88;;;17.12;59.20
9525;BME280;15940;48.734;9.112;2022-08-23T02:22:38;96498.19;;;17.10;58.56
9525;BME280;15940;48.734;9.112;2022-08-23T02:25:07;96499.19;;;16.99;57.94
9525;BME280;15940;48.734;9.112;2022-08-23T02:27:34;96497.72;;;16.98;58.45
9525;BME280;15940;48.734;9.112;2022-08-23T02:30:02;96506.66;;;16.99;58.56
9525;BME280;15940;48.734;9.112;2022-08-23T02:32:30;96504.56;;;16.92;58.41
9525;BME280;15940;48.734;9.112;2022-08-23T02:34:57;96507.69;;;16.96;59.26
9525;BME280;15940;48.734;9.112;2022-08-23T02:37:24;96507.59;;;17.01;58.77
9525;BME280;15940;48.734;9.112;2022-08-23T02:39:51;96505.19;;;16.98;58.46
9525;BME280;15940;48.734;9.112;2022-08-23T02:42:18;96504.97;;;16.96;58.13
9525;BME280;15940;48.734;9.112;2022-08-23T02:44:45;96496.44;;;16.99;58.66
9525;BME280;15940;48.734;9.112;2022-08-23T02:47:13;96505.91;;;16.98;59.22
9525;BME280;15940;48.734;9.112;2022-08-23T02:49:41;96503.28;;;16.93;59.67
9525;BME280;15940;48.734;9.112;2022-08-23T02:52:08;96510.03;;;16.92;58.71
9525;BME280;15940;48.734;9.112;2022-08-23T02:54:35;96505.91;;;16.98;59.45
9525;BME280;15940;48.734;9.112;2022-08-23T02:57:03;96502.97;;;16.96;59.29
9525;BME280;15940;48.734;9.112;2022-08-23T02:59:30;96515.09;;;16.88;59.09
9525;BME280;15940;48.734;9.112;2022-08-23T03:01:57;96516.28;;;16.79;59.40
9525;BME280;15940;48.734;9.112;2022-08-23T03:04:24;96516.19;;;16.71;59.51
9525;BME280;15940;48.734;9.112;2022-08-23T03:06:52;96505.31;;;16.66;59.60
9525;BME280;15940;48.734;9.112;2022-08-23T03:09:19;96507.84;;;16.64;59.75
9525;BME280;15940;48.734;9.112;2022-08-23T03:11:47;96511.09;;;16.62;60.59
9525;BME280;15940;48.734;9.112;2022-08-23T03:14:15;96509.09;;;16.63;60.07
9525;BME280;15940;48.734;9.112;2022-08-23T03:16:43;96511.84;;;16.63;59.66
9525;BME280;15940;48.734;9.112;2022-08-23T03:19:10;96512.97;;;16.67;60.33
9525;BME280;15940;48.734;9.112;2022-08-23T03:21:37;96517.31;;;16.76;60.22
9525;BME280;15940;48.734;9.112;2022-08-23T03:24:06;96516.97;;;16.66;59.67
9525;BME280;15940;48.734;9.112;2022-08-23T03:26:33;96512.25;;;16.67;59.24
9525;BME280;15940;48.734;9.112;2022-08-23T03:29:00;96517.22;;;16.55;59.21
9525;BME280;15940;48.734;9.112;2022-08-23T03:31:27;96521.13;;;16.60;60.41
9525;BME280;15940;48.734;9.112;2022-08-23T03:33:54;96513.75;;;16.54;59.87
9525;BME280;15940;48.734;9.112;2022-08-23T03:36:21;96519.31;;;16.62;60.42
9525;BME280;15940;48.734;9.112;2022-08-23T03:38:48;96514.91;;;16.59;60.50
9525;BME280;15940;48.734;9.112;2022-08-23T03:41:16;96516.59;;;16.62;60.82
9525;BME280;15940;48.734;9.112;2022-08-23T03:43:43;96516.97;;;16.66;60.54
9525;BME280;15940;48.734;9.112;2022-08-23T03:46:10;96515.50;;;16.65;60.12
9525;BME280;15940;48.734;9.112;2022-08-23T03:49:00;96520.19;;;16.70;59.45
9525;BME280;15940;48.734;9.112;2022-08-23T03:51:29;96513.50;;;16.66;58.95
9525;BME280;15940;48.734;9.112;2022-08-23T03:53:57;96517.44;;;16.70;59.37
9525;BME280;15940;48.734;9.112;2022-08-23T03:56:28;96521.13;;;16.73;60.19
9525;BME280;15940;48.734;9.112;2022-08-23T03:58:58;96526.06;;;16.74;58.92
9525;BME280;15940;48.734;9.112;2022-08-23T04:01:25;96530.59;;;16.72;60.07
9525;BME280;15940;48.734;9.112;2022-08-23T04:03:52;96535.53;;;16.73;58.68
9525;BME280;15940;48.734;9.112;2022-08-23T04:06:19;96532.38;;;16.69;58.99
9525;BME280;15940;48.734;9.112;2022-08-23T04:08:47;96537.13;;;16.69;59.52
9525;BME280;15940;48.734;9.112;2022-08-23T04:11:14;96543.59;;;16.66;59.86
9525;BME280;15940;48.734;9.112;2022-08-23T04:13:43;96537.00;;;16.61;59.84
9525;BME280;15940;48.734;9.112;2022-08-23T04:16:09;96546.13;;;16.64;59.85
9525;BME280;15940;48.734;9.112;2022-08-23T04:18:36;96545.53;;;16.71;59.81
9525;BME280;15940;48.734;9.112;2022-08-23T04:21:08;96543.59;;;16.66;60.06
9525;BME280;15940;48.734;9.112;2022-08-23T04:23:36;96546.22;;;16.58;59.61
9525;BME280;15940;48.734;9.112;2022-08-23T04:26:04;96545.50;;;16.57;59.83
9525;BME280;15940;48.734;9.112;2022-08-23T04:28:31;96540.47;;;16.62;59.26
9525;BME280;15940;48.734;9.112;2022-08-23T04:31:01;96541.84;;;16.68;60.16
9525;BME280;15940;48.734;9.112;2022-08-23T04:33:31;96545.94;;;16.75;59.58
9525;BME280;15940;48.734;9.112;2022-08-23T04:36:00;96552.03;;;16.81;59.47
9525;BME280;15940;48.734;9.112;2022-08-23T04:38:27;96552.25;;;16.83;59.62
9525;BME280;15940;48.734;9.112;2022-08-23T04:40:55;96558.44;;;16.83;59.46
9525;BME280;15940;48.734;9.112;2022-08-23T04:43:40;96561.06;;;16.89;59.62
9525;BME280;15940;48.734;9.112;2022-08-23T04:46:10;96566.41;;;16.95;59.00
9525;BME280;15940;48.734;9.112;2022-08-23T04:48:40;96562.22;;;16.94;59.53
9525;BME280;15940;48.734;9.112;2022-08-23T04:51:08;96569.88;;;16.95;59.28
9525;BME280;15940;48.734;9.112;2022-08-23T04:53:35;96567.69;;;16.94;59.38
9525;BME280;15940;48.734;9.112;2022-08-23T04:56:03;96572.22;;;16.91;59.68
9525;BME280;15940;48.734;9.112;2022-08-23T04:58:33;96577.50;;;16.89;59.92
9525;BME280;15940;48.734;9.112;2022-08-23T05:01:03;96580.22;;;16.89;59.78
9525;BME280;15940;48.734;9.112;2022-08-23T05:03:32;96575.91;;;16.80;60.36
9525;BME280;15940;48.734;9.112;2022-08-23T05:06:00;96584.13;;;16.80;60.32
9525;BME280;15940;48.734;9.112;2022-08-23T05:08:28;96579.88;;;16.66;60.73
9525;BME280;15940;48.734;9.112;2022-08-23T05:10:59;96585.16;;;16.64;60.45
9525;BME280;15940;48.734;9.112;2022-08-23T05:13:27;96581.16;;;16.65;61.29
9525;BME280;15940;48.734;9.112;2022-08-23T05:15:54;96587.16;;;16.77;61.03
9525;BME280;15940;48.734;9.112;2022-08-23T05:18:22;96585.59;;;16.81;61.01
9525;BME280;15940;48.734;9.112;2022-08-23T05:20:50;96593.72;;;16.87;61.02
9525;BME280;15940;48.734;9.112;2022-08-23T05:23:17;96591.72;;;16.88;60.62
9525;BME280;15940;48.734;9.112;2022-08-23T05:25:45;96585.28;;;16.85;60.57
9525;BME280;15940;48.734;9.112;2022-08-23T05:28:20;96594.66;;;16.90;60.84
9525;BME280;15940;48.734;9.112;2022-08-23T05:30:55;96589.78;;;16.96;60.38
9525;BME280;15940;48.734;9.112;2022-08-23T05:33:23;96580.53;;;16.99;60.72
9525;BME280;15940;48.734;9.112;2022-08-23T05:35:52;96589.78;;;17.09;60.22
9525;BME280;15940;48.734;9.112;2022-08-23T05:38:21;96590.72;;;17.11;60.21
9525;BME280;15940;48.734;9.112;2022-08-23T05:40:48;96592.59;;;17.17;60.40
9525;BME280;15940;48.734;9.112;2022-08-23T05:43:16;96591.66;;;17.14;60.54
9525;BME280;15940;48.734;9.112;2022-08-23T05:45:43;96586.72;;;17.12;60.23
9525;BME280;15940;48.734;9.112;2022-08-23T05:48:10;96589.44;;;17.12;60.49
9525;BME280;15940;48.734;9.112;2022-08-23T05:50:38;96593.44;;;17.11;60.70
9525;BME280;15940;48.734;9.112;2022-08-23T05:53:08;96593.97;;;17.10;60.48
9525;BME280;15940;48.734;9.112;2022-08-23T05:55:35;96598.09;;;17.17;60.29
9525;BME280;15940;48.734;9.112;2022-08-23T05:58:02;96608.38;;;17.24;60.43
9525;BME280;15940;48.734;9.112;2022-08-23T06:00:29;96609.72;;;17.30;60.99
9525;BME280;15940;48.734;9.112;2022-08-23T06:02:56;96610.22;;;17.42;60.45
9525;BME280;15940;48.734;9.112;2022-08-23T06:05:23;96612.31;;;17.49;60.59
9525;BME280;15940;48.734;9.112;2022-08-23T06:07:50;96613.53;;;17.61;60.21
9525;BME280;15940;48.734;9.112;2022-08-23T06:10:19;96615.00;;;17.76;59.58
9525;BME280;15940;48.734;9.112;2022-08-23T06:12:47;96617.47;;;17.87;57.71
9525;BME280;15940;48.734;9.112;2022-08-23T06:15:14;96610.84;;;18.03;57.79
9525;BME280;15940;48.734;9.112;2022-08-23T06:17:41;96619.94;;;18.19;56.87
9525;BME280;15940;48.734;9.112;2022-08-23T06:20:09;96618.59;;;18.33;56.84
9525;BME280;15940;48.734;9.112;2022-08-23T06:22:36;96621.78;;;18.45;56.42
9525;BME280;15940;48.734;9.112;2022-08-23T06:25:04;96628.84;;;18.61;56.33
9525;BME280;15940;48.734;9.112;2022-08-23T06:27:33;96623.28;;;18.74;55.20
9525;BME280;15940;48.734;9.112;2022-08-23T06:29:59;96632.53;;;18.92;54.97
9525;BME280;15940;48.734;9.112;2022-08-23T06:32:26;96633.34;;;19.08;54.40
9525;BME280;15940;48.734;9.112;2022-08-23T06:34:53;96624.97;;;19.21;53.57
9525;BME280;15940;48.734;9.112;2022-08-23T06:37:21;96620.28;;;19.37;53.54
9525;BME280;15940;48.734;9.112;2022-08-23T06:39:48;96629.31;;;19.53;52.54
9525;BME280;15940;48.734;9.112;2022-08-23T06:42:16;96623.34;;;19.69;52.33
9525;BME280;15940;48.734;9.112;2022-08-23T06:44:44;96622.81;;;19.86;52.43
9525;BME280;15940;48.734;9.112;2022-08-23T06:47:11;96630.19;;;20.07;52.42
9525;BME280;15940;48.734;9.112;2022-08-23T06:49:38;96635.69;;;20.22;51.55
9525;BME280;15940;48.734;9.112;2022-08-23T06:52:05;96633.69;;;20.38;51.65
9525;BME280;15940;48.734;9.112;2022-08-23T06:54:34;96630.75;;;20.59;51.41
9525;BME280;15940;48.734;9.112;2022-08-23T06:57:03;96635.31;;;20.79;50.88
9525;BME280;15940;48.734;9.112;2022-08-23T06:59:30;96637.50;;;20.96;49.97
9525;BME280;15940;48.734;9.112;2022-08-23T07:02:01;96639.09;;;21.14;50.54
9525;BME280;15940;48.734;9.112;2022-08-23T07:04:31;96636.09;;;21.35;49.91
9525;BME280;15940;48.734;9.112;2022-08-23T07:06:59;96641.13;;;21.61;49.18
9525;BME280;15940;48.734;9.112;2022-08-23T07:09:27;96642.63;;;21.87;48.03
9525;BME280;15940;48.734;9.112;2022-08-23T07:11:55;96648.59;;;22.34;48.34
9525;BME280;15940;48.734;9.112;2022-08-23T07:14:23;96651.84;;;22.82;47.01
9525;BME280;15940;48.734;9.112;2022-08-23T07:16:53;96650.25;;;23.31;46.21
9525;BME280;15940;48.734;9.112;2022-08-23T07:19:25;96654.72;;;23.61;43.77
9525;BME280;15940;48.734;9.112;2022-08-23T07:21:53;96646.25;;;23.86;43.50
9525;BME280;15940;48.734;9.112;2022-08-23T07:24:21;96654.50;;;23.76;42.80
9525;BME280;15940;48.734;9.112;2022-08-23T07:26:50;96647.31;;;23.90;42.94
9525;BME280;15940;48.734;9.112;2022-08-23T07:29:19;96649.88;;;24.15;42.87
9525;BME280;15940;48.734;9.112;2022-08-23T07:31:50;96650.47;;;24.14;41.85
9525;BME280;15940;48.734;9.112;2022-08-23T07:34:18;96657.75;;;24.09;40.25
9525;BME280;15940;48.734;9.112;2022-08-23T07:36:48;96649.28;;;24.07;41.31
9525;BME280;15940;48.734;9.112;2022-08-23T07:39:17;96652.84;;;24.27;41.53
9525;BME280;15940;48.734;9.112;2022-08-23T07:41:45;96653.66;;;24.37;40.52
9525;BME280;15940;48.734;9.112;2022-08-23T07:44:13;96658.59;;;24.39;40.20
9525;BME280;15940;48.734;9.112;2022-08-23T07:46:43;96658.06;;;24.60;39.57
9525;BME280;15940;48.734;9.112;2022-08-23T07:49:11;96663.41;;;24.94;39.68
9525;BME280;15940;48.734;9.112;2022-08-23T07:51:41;96658.75;;;25.06;39.20
9525;BME280;15940;48.734;9.112;2022-08-23T07:54:10;96661.97;;;25.13;37.48
9525;BME280;15940;48.734;9.112;2022-08-23T07:56:38;96671.91;;;25.35;38.33
9525;BME280;15940;48.734;9.112;2022-08-23T07:59:08;96662.13;;;25.44;38.45
9525;BME280;15940;48.734;9.112;2022-08-23T08:01:35;96669.84;;;25.55;37.42
9525;BME280;15940;48.734;9.112;2022-08-23T08:04:04;96669.97;;;25.76;37.78
9525;BME280;15940;48.734;9.112;2022-08-23T08:06:34;96669.34;;;25.97;36.41
9525;BME280;15940;48.734;9.112;2022-08-23T08:09:03;96672.50;;;26.13;36.17
9525;BME280;15940;48.734;9.112;2022-08-23T08:11:33;96671.63;;;26.10;36.51
9525;BME280;15940;48.734;9.112;2022-08-23T08:14:04;96681.56;;;26.13;36.15
9525;BME280;15940;48.734;9.112;2022-08-23T08:16:35;96677.88;;;26.20;35.56
9525;BME280;15940;48.734;9.112;2022-08-23T08:19:05;96681.78;;;26.37;35.69
9525;BME280;15940;48.734;9.112;2022-08-23T08:21:33;96681.88;;;26.48;34.25
9525;BME280;15940;48.734;9.112;2022-08-23T08:24:02;96687.50;;;26.39;34.48
9525;BME280;15940;48.734;9.112;2022-08-23T08:26:30;96692.81;;;26.56;34.56
9525;BME280;15940;48.734;9.112;2022-08-23T08:28:58;96684.38;;;26.75;35.22
9525;BME280;15940;48.734;9.112;2022-08-23T08:31:25;96687.03;;;26.73;34.63
9525;BME280;15940;48.734;9.112;2022-08-23T08:33:52;96686.69;;;26.79;35.79
9525;BME280;15940;48.734;9.112;2022-08-23T08:36:32;96685.72;;;26.96;35.68
9525;BME280;15940;48.734;9.112;2022-08-23T08:39:02;96684.28;;;27.16;35.27
9525;BME280;15940;48.734;9.112;2022-08-23T08:41:49;96688.31;;;27.25;34.88
9525;BME280;15940;48.734;9.112;2022-08-23T08:44:33;96695.00;;;27.31;34.67
9525;BME280;15940;48.734;9.112;2022-08-23T08:47:09;96691.34;;;27.50;33.74
9525;BME280;15940;48.734;9.112;2022-08-23T08:49:43;96688.59;;;27.62;33.00
9525;BME280;15940;48.734;9.112;2022-08-23T08:52:16;96688.44;;;27.81;33.57
9525;BME280;15940;48.734;9.112;2022-08-23T08:54:49;96689.03;;;27.80;31.73
9525;BME280;15940;48.734;9.112;2022-08-23T08:57:21;96686.22;;;27.68;31.75
9525;BME280;15940;48.734;9.112;2022-08-23T08:59:58;96691.13;;;27.91;33.24
9525;BME280;15940;48.734;9.112;2022-08-23T09:02:30;96690.78;;;28.08;31.92
9525;BME280;15940;48.734;9.112;2022-08-23T09:04:59;96693.81;;;28.01;31.17
9525;BME280;15940;48.734;9.112;2022-08-23T09:07:35;96692.06;;;28.29;31.84
9525;BME280;15940;48.734;9.112;2022-08-23T09:10:22;96693.25;;;28.49;31.67
9525;BME280;15940;48.734;9.112;2022-08-23T09:13:02;96697.97;;;28.70;32.00
9525;BME280;15940;48.734;9.112;2022-08-23T09:15:42;96697.63;;;28.64;30.37
9525;BME280;15940;48.734;9.112;2022-08-23T09:18:15;96693.00;;;28.68;31.07
9525;BME280;15940;48.734;9.112;2022-08-23T09:20:44;96691.44;;;28.77;30.07
9525;BME280;15940;48.734;9.112;2022-08-23T09:23:18;96692.41;;;28.70;29.42
9525;BME280;15940;48.734;9.112;2022-08-23T09:25:51;96690.25;;;28.92;30.19
9525;BME280;15940;48.734;9.112;2022-08-23T09:28:19;96699.50;;;29.20;30.73
9525;BME280;15940;48.734;9.112;2022-08-23T09:30:51;96694.81;;;29.48;30.27
9525;BME280;15940;48.734;9.112;2022-08-23T09:33:22;96701.56;;;29.82;29.05
9525;BME280;15940;48.734;9.112;2022-08-23T09:36:12;96692.13;;;30.01;28.39
9525;BME280;15940;48.734;9.112;2022-08-23T09:38:51;96690.84;;;30.16;28.40
9525;BME280;15940;48.734;9.112;2022-08-23T09:41:23;96693.03;;;30.17;29.09
9525;BME280;15940;48.734;9.112;2022-08-23T09:43:52;96692.91;;;30.15;29.81
9525;BME280;15940;48.734;9.112;2022-08-23T09:46:27;96692.53;;;29.95;28.26
9525;BME280;15940;48.734;9.112;2022-08-23T09:48:54;96699.13;;;29.88;29.04
9525;BME280;15940;48.734;9.112;2022-08-23T09:51:27;96692.81;;;29.88;29.88
9525;BME280;15940;48.734;9.112;2022-08-23T09:54:06;96688.69;;;29.89;29.99
9525;BME280;15940;48.734;9.112;2022-08-23T09:56:38;96694.16;;;29.86;30.41
9525;BME280;15940;48.734;9.112;2022-08-23T09:59:20;96691.81;;;29.95;30.90
9525;BME280;15940;48.734;9.112;2022-08-23T10:01:50;96688.72;;;30.02;29.79
9525;BME280;15940;48.734;9.112;2022-08-23T10:04:23;96697.47;;;30.22;28.62
9525;BME280;15940;48.734;9.112;2022-08-23T10:06:50;96694.28;;;30.28;28.63
9525;BME280;15940;48.734;9.112;2022-08-23T10:09:28;96696.06;;;30.35;28.70
9525;BME280;15940;48.734;9.112;2022-08-23T10:11:58;96691.81;;;30.34;29.00
9525;BME280;15940;48.734;9.112;2022-08-23T10:14:28;96686.22;;;30.34;27.85
9525;BME280;15940;48.734;9.112;2022-08-23T10:17:07;96689.06;;;30.08;28.60
9525;BME280;15940;48.734;9.112;2022-08-23T10:19:43;96690.66;;;30.25;28.13
9525;BME280;15940;48.734;9.112;2022-08-23T10:22:19;96689.22;;;30.38;28.56
9525;BME280;15940;48.734;9.112;2022-08-23T10:24:51;96683.66;;;30.52;27.76
9525;BME280;15940;48.734;9.112;2022-08-23T10:27:43;96686.94;;;30.34;27.74
9525;BME280;15940;48.734;9.112;2022-08-23T10:30:39;96686.78;;;30.05;28.33
9525;BME280;15940;48.734;9.112;2022-08-23T10:33:16;96681.25;;;30.46;28.19
9525;BME280;15940;48.734;9.112;2022-08-23T10:35:53;96682.00;;;30.74;27.96
9525;BME280;15940;48.734;9.112;2022-08-23T10:38:38;96687.31;;;30.82;26.93
9525;BME280;15940;48.734;9.112;2022-08-23T10:41:33;96684.00;;;30.72;26.60
9525;BME280;15940;48.734;9.112;2022-08-23T10:44:22;96682.81;;;30.63;27.20
9525;BME280;15940;48.734;9.112;2022-08-23T10:47:09;96679.75;;;30.70;26.90
9525;BME280;15940;48.734;9.112;2022-08-23T10:49:41;96670.41;;;30.93;27.17
9525;BME280;15940;48.734;9.112;2022-08-23T10:52:14;96669.16;;;30.83;26.57
9525;BME280;15940;48.734;9.112;2022-08-23T10:54:47;96654.59;;;30.70;26.38
9525;BME280;15940;48.734;9.112;2022-08-23T10:57:31;96657.75;;;30.51;26.76
9525;BME280;15940;48.734;9.112;2022-08-23T11:00:00;96661.69;;;30.60;27.46
9525;BME280;15940;48.734;9.112;2022-08-23T11:02:34;96662.13;;;30.54;26.79
9525;BME280;15940;48.734;9.112;2022-08-23T11:05:21;96658.38;;;30.36;26.45
9525;BME280;15940;48.734;9.112;2022-08-23T11:08:00;96666.78;;;30.63;26.80
9525;BME280;15940;48.734;9.112;2022-08-23T11:10:39;96656.53;;;30.68;26.14
9525;BME280;15940;48.734;9.112;2022-08-23T11:13:23;96649.28;;;30.77;26.16
9525;BME280;15940;48.734;9.112;2022-08-23T11:16:00;96658.56;;;30.95;25.77
9525;BME280;15940;48.734;9.112;2022-08-23T11:18:41;96650.91;;;30.95;27.13
9525;BME280;15940;48.734;9.112;2022-08-23T11:21:45;96657.44;;;31.00;25.99
9525;BME280;15940;48.734;9.112;2022-08-23T11:27:37;96646.88;;;30.85;26.07
9525;BME280;15940;48.734;9.112;2022-08-23T11:30:44;96651.22;;;31.02;25.88
9525;BME280;15940;48.734;9.112;2022-08-23T11:33:20;96652.84;;;31.07;25.51
9525;BME280;15940;48.734;9.112;2022-08-23T11:35:51;96644.59;;;30.95;25.81
9525;BME280;15940;48.734;9.112;2022-08-23T11:42:03;96654.38;;;30.80;26.25
9525;BME280;15940;48.734;9.112;2022-08-23T11:44:39;96656.22;;;30.89;26.63
9525;BME280;15940;48.734;9.112;2022-08-23T11:47:09;96651.19;;;31.15;26.23
9525;BME280;15940;48.734;9.112;2022-08-23T11:50:20;96652.84;;;31.20;26.12
9525;BME280;15940;48.734;9.112;2022-08-23T11:53:09;96641.22;;;31.26;25.69
9525;BME280;15940;48.734;9.112;2022-08-23T11:56:08;96645.19;;;31.21;26.21
9525;BME280;15940;48.734;9.112;2022-08-23T11:59:25;96647.66;;;31.15;25.86
9525;BME280;15940;48.734;9.112;2022-08-23T12:01:55;96640.72;;;31.16;25.90
9525;BME280;15940;48.734;9.112;2022-08-23T12:04:34;96627.75;;;31.22;25.54
9525;BME280;15940;48.734;9.112;2022-08-23T12:07:04;96632.53;;;31.20;25.68
9525;BME280;15940;48.734;9.112;2022-08-23T12:09:54;96631.19;;;31.21;26.07
9525;BME280;15940;48.734;9.112;2022-08-23T12:12:33;96631.78;;;31.33;25.98
9525;BME280;15940;48.734;9.112;2022-08-23T12:15:06;96625.03;;;31.38;25.44
9525;BME280;15940;48.734;9.112;2022-08-23T12:20:30;96625.66;;;31.37;26.10
9525;BME280;15940;48.734;9.112;2022-08-23T12:23:17;96636.16;;;31.22;26.25
9525;BME280;15940;48.734;9.112;2022-08-23T12:25:44;96634.88;;;31.39;26.92
9525;BME280;15940;48.734;9.112;2022-08-23T12:28:41;96628.47;;;31.52;25.93
9525;BME280;15940;48.734;9.112;2022-08-23T12:31:31;96625.16;;;31.56;25.83
9525;BME280;15940;48.734;9.112;2022-08-23T12:34:13;96630.19;;;31.89;25.93
9525;BME280;15940;48.734;9.112;2022-08-23T12:36:54;96623.09;;;31.72;25.03
9525;BME280;15940;48.734;9.112;2022-08-23T12:39:31;96614.50;;;31.68;25.57
9525;BME280;15940;48.734;9.112;2022-08-23T12:42:08;96621.34;;;31.49;25.72
9525;BME280;15940;48.734;9.112;2022-08-23T12:44:40;96617.38;;;31.54;26.25
9525;BME280;15940;48.734;9.112;2022-08-23T12:47:14;96621.13;;;31.75;26.30
9525;BME280;15940;48.734;9.112;2022-08-23T12:49:54;96619.00;;;31.60;25.95
9525;BME280;15940;48.734;9.112;2022-08-23T12:52:25;96624.56;;;31.44;25.76
9525;BME280;15940;48.734;9.112;2022-08-23T12:54:52;96617.53;;;31.43;26.42
9525;BME280;15940;48.734;9.112;2022-08-23T12:57:32;96613.72;;;31.36;26.75
9525;BME280;15940;48.734;9.112;2022-08-23T13:00:15;96611.38;;;31.17;26.44
9525;BME280;15940;48.734;9.112;2022-08-23T13:02:50;96610.44;;;31.26;25.86
9525;BME280;15940;48.734;9.112;2022-08-23T13:05:26;96603.69;;;31.17;26.24
9525;BME280;15940;48.734;9.112;2022-08-23T13:07:56;96608.19;;;31.22;26.36
9525;BME280;15940;48.734;9.112;2022-08-23T13:10:23;96601.13;;;31.21;26.28
9525;BME280;15940;48.734;9.112;2022-08-23T13:12:51;96608.69;;;31.19;26.78
9525;BME280;15940;48.734;9.112;2022-08-23T13:15:44;96606.63;;;31.49;26.32
9525;BME280;15940;48.734;9.112;2022-08-23T13:18:26;96605.34;;;31.52;26.49
9525;BME280;15940;48.734;9.112;2022-08-23T13:21:27;96602.25;;;31.46;26.06
9525;BME280;15940;48.734;9.112;2022-08-23T13:23:57;96602.84;;;31.58;26.86
9525;BME280;15940;48.734;9.112;2022-08-23T13:26:40;96601.09;;;31.51;26.24
9525;BME280;15940;48.734;9.112;2022-08-23T13:29:19;96609.66;;;31.39;26.73
9525;BME280;15940;48.734;9.112;2022-08-23T13:31:58;96599.84;;;31.54;27.18
9525;BME280;15940;48.734;9.112;2022-08-23T13:34:39;96598.34;;;31.67;26.49
9525;BME280;15940;48.734;9.112;2022-08-23T13:37:19;96601.31;;;31.71;26.48
9525;BME280;15940;48.734;9.112;2022-08-23T13:39:51;96595.53;;;31.67;26.92
9525;BME280;15940;48.734;9.112;2022-08-23T13:42:33;96600.84;;;31.61;26.21
9525;BME280;15940;48.734;9.112;2022-08-23T13:45:11;96589.16;;;31.35;26.50
9525;BME280;15940;48.734;9.112;2022-08-23T13:47:46;96596.06;;;31.47;26.39